Time,TemperatureF,DewpointF,PressureIn,WindDirection,WindDirectionDegrees,WindSpeedMPH,WindSpeedGustMPH,Humidity,HourlyPrecipIn,Conditions,Clouds,dailyrainin,SoftwareType,DateUTC
2013-03-13 00:00:00,30.3,23.3,30.15,WNW,289,16.0,20.0,75,0.00,,OVC065,0.00,VWS V14.01,2013-03-13 05:00:00,
2013-03-13 00:03:00,30.3,23.3,30.15,NW,325,5.0,20.0,75,0.00,,,0.00,VWS V14.01,2013-03-13 05:03:00,
2013-03-13 00:05:00,30.3,23.3,30.15,NW,305,0.0,20.0,75,0.00,,,0.00,VWS V14.01,2013-03-13 05:05:00,
2013-03-13 00:06:00,30.3,23.3,30.15,NNW,338,3.0,20.0,75,0.00,,,0.00,VWS V14.01,2013-03-13 05:06:00,
2013-03-13 00:08:00,30.3,23.3,30.15,WNW,296,3.0,20.0,75,0.00,,,0.00,VWS V14.01,2013-03-13 05:08:00,
2013-03-13 00:10:00,30.5,23.5,30.15,NW,310,1.0,20.0,75,0.00,,,0.00,VWS V14.01,2013-03-13 05:10:00,
2013-03-13 00:12:00,30.5,23.5,30.15,WNW,296,4.0,20.0,75,0.00,,,0.00,VWS V14.01,2013-03-13 05:12:00,
2013-03-13 00:13:00,30.5,23.5,30.15,NW,316,9.0,20.0,75,0.00,,,0.00,VWS V14.01,2013-03-13 05:13:00,
2013-03-13 00:15:00,30.5,23.5,30.14,NW,316,6.0,20.0,75,0.00,,,0.00,VWS V14.01,2013-03-13 05:15:00,
2013-03-13 00:16:00,30.5,23.5,30.14,NW,321,9.0,20.0,75,0.00,,,0.00,VWS V14.01,2013-03-13 05:16:00,
2013-03-13 00:17:00,30.5,23.2,30.14,NW,306,5.0,20.0,74,0.00,,,0.00,VWS V14.01,2013-03-13 05:17:00,
2013-03-13 00:18:00,30.5,23.2,30.14,NW,311,4.0,20.0,74,0.00,,,0.00,VWS V14.01,2013-03-13 05:18:00,
2013-03-13 00:21:00,30.5,23.2,30.14,NW,319,0.0,20.0,74,0.00,,,0.00,VWS V14.01,2013-03-13 05:21:00,
2013-03-13 00:22:00,30.5,23.2,30.14,NW,323,0.0,20.0,74,0.00,,,0.00,VWS V14.01,2013-03-13 05:22:00,
2013-03-13 00:23:00,30.5,23.2,30.14,NW,317,6.0,20.0,74,0.00,,,0.00,VWS V14.01,2013-03-13 05:23:00,
2013-03-13 00:26:00,30.5,23.2,30.14,WNW,290,3.0,20.0,74,0.00,,,0.00,VWS V14.01,2013-03-13 05:26:00,
2013-03-13 00:27:00,30.6,23.3,30.14,NW,311,11.0,20.0,74,0.00,,,0.00,VWS V14.01,2013-03-13 05:27:00,
2013-03-13 00:28:00,30.6,23.0,30.14,West,277,4.0,20.0,73,0.00,,,0.00,VWS V14.01,2013-03-13 05:28:00,
2013-03-13 00:30:00,29.0,18.0,30.15,WNW,294,3.0,19.0,63,0.00,,,0.00,VWS V14.01,2013-03-13 05:30:00,
2013-03-13 00:31:00,30.6,23.0,30.15,WNW,301,4.0,12.0,73,0.00,,,0.00,VWS V14.01,2013-03-13 05:31:00,
2013-03-13 00:32:00,30.6,23.0,30.15,WNW,302,6.0,13.0,73,0.00,,,0.00,VWS V14.01,2013-03-13 05:32:00,
2013-03-13 00:34:00,30.5,22.9,30.15,NW,305,0.0,16.0,73,0.00,,,0.00,VWS V14.01,2013-03-13 05:34:00,
2013-03-13 00:37:00,30.3,22.7,30.15,NNW,338,14.0,16.0,73,0.00,,,0.00,VWS V14.01,2013-03-13 05:37:00,
2013-03-13 00:39:00,30.2,22.3,30.15,WNW,300,7.0,16.0,72,0.00,,,0.00,VWS V14.01,2013-03-13 05:39:00,
2013-03-13 00:42:00,30.0,21.4,30.15,West,279,4.0,16.0,70,0.00,,,0.00,VWS V14.01,2013-03-13 05:42:00,
2013-03-13 00:44:00,30.0,21.4,30.15,WNW,297,0.0,16.0,70,0.00,,,0.00,VWS V14.01,2013-03-13 05:44:00,
2013-03-13 00:47:00,29.9,20.3,30.15,WNW,292,14.0,18.0,67,0.00,,BKN065,0.00,VWS V14.01,2013-03-13 05:47:00,
2013-03-13 00:49:00,29.9,19.9,30.15,NW,304,12.0,19.0,66,0.00,,BKN065,0.00,VWS V14.01,2013-03-13 05:49:00,
2013-03-13 00:52:00,29.9,19.6,30.15,NNW,338,10.0,19.0,65,0.00,,BKN065,0.00,VWS V14.01,2013-03-13 05:52:00,
2013-03-13 00:53:00,29.9,19.6,30.15,NNW,348,15.0,19.0,65,0.00,,BKN065,0.00,VWS V14.01,2013-03-13 05:53:00,
2013-03-13 00:54:00,29.7,19.4,30.15,NW,317,3.0,19.0,65,0.00,,BKN065,0.00,VWS V14.01,2013-03-13 05:54:00,
2013-03-13 00:57:00,29.7,19.4,30.15,NW,315,7.0,19.0,65,0.00,,BKN065,0.00,VWS V14.01,2013-03-13 05:57:00,
2013-03-13 00:58:00,29.7,19.4,30.15,NNW,348,16.0,23.0,65,0.00,,BKN065,0.00,VWS V14.01,2013-03-13 05:58:00,
2013-03-13 00:59:00,29.6,19.3,30.15,NW,324,4.0,23.0,65,0.00,,BKN065,0.00,VWS V14.01,2013-03-13 05:59:00,
2013-03-13 01:00:00,28.7,17.7,30.15,NW,326,9.0,17.0,63,0.00,,,0.00,VWS V14.01,2013-03-13 06:00:00,
2013-03-13 01:02:00,29.6,18.6,30.15,WNW,298,5.0,14.0,63,0.00,,BKN065,0.00,VWS V14.01,2013-03-13 06:02:00,
2013-03-13 01:03:00,29.6,18.6,30.15,NW,315,7.0,14.0,63,0.00,,BKN065,0.00,VWS V14.01,2013-03-13 06:03:00,
2013-03-13 01:04:00,29.6,18.6,30.15,NW,304,6.0,14.0,63,0.00,,BKN065,0.00,VWS V14.01,2013-03-13 06:04:00,
2013-03-13 01:07:00,29.4,18.0,30.15,North,360,10.0,16.0,62,0.00,,BKN065,0.00,VWS V14.01,2013-03-13 06:07:00,
2013-03-13 01:08:00,29.4,18.0,30.15,NNW,327,4.0,16.0,62,0.00,,BKN065,0.00,VWS V14.01,2013-03-13 06:08:00,
2013-03-13 01:09:00,29.4,18.0,30.15,WNW,296,6.0,16.0,62,0.00,,BKN065,0.00,VWS V14.01,2013-03-13 06:09:00,
2013-03-13 01:12:00,29.3,17.9,30.15,West,266,4.0,16.0,62,0.00,,BKN065,0.00,VWS V14.01,2013-03-13 06:12:00,
2013-03-13 01:13:00,29.3,17.9,30.15,NW,311,9.0,17.0,62,0.00,,BKN065,0.00,VWS V14.01,2013-03-13 06:13:00,
2013-03-13 01:14:00,29.3,17.9,30.15,WNW,294,5.0,17.0,62,0.00,,BKN065,0.00,VWS V14.01,2013-03-13 06:14:00,
2013-03-13 01:17:00,29.3,17.9,30.15,NW,310,7.0,17.0,62,0.00,,BKN065,0.00,VWS V14.01,2013-03-13 06:17:00,
2013-03-13 01:18:00,29.2,17.8,30.15,NNW,341,7.0,17.0,62,0.00,,BKN065,0.00,VWS V14.01,2013-03-13 06:18:00,
2013-03-13 01:19:00,29.2,17.8,30.15,NW,315,10.0,19.0,62,0.00,,BKN065,0.00,VWS V14.01,2013-03-13 06:19:00,
2013-03-13 01:22:00,29.2,17.8,30.15,NW,320,15.0,19.0,62,0.00,,BKN065,0.00,VWS V14.01,2013-03-13 06:22:00,
2013-03-13 01:23:00,29.2,17.8,30.15,NW,306,8.0,19.0,62,0.00,,BKN065,0.00,VWS V14.01,2013-03-13 06:23:00,
2013-03-13 01:24:00,29.2,17.8,30.15,WNW,301,3.0,19.0,62,0.00,,BKN065,0.00,VWS V14.01,2013-03-13 06:24:00,
2013-03-13 01:27:00,29.0,17.6,30.15,NW,308,5.0,19.0,62,0.00,,BKN065,0.00,VWS V14.01,2013-03-13 06:27:00,
2013-03-13 01:28:00,29.0,17.6,30.15,West,259,0.0,19.0,62,0.00,,BKN065,0.00,VWS V14.01,2013-03-13 06:28:00,
2013-03-13 01:29:00,29.0,18.0,30.15,WNW,300,6.0,19.0,63,0.00,,BKN065,0.00,VWS V14.01,2013-03-13 06:29:00,
2013-03-13 01:30:00,28.9,17.5,30.15,South,170,6.0,19.0,62,0.00,,,0.00,VWS V14.01,2013-03-13 06:30:00,
2013-03-13 01:33:00,29.0,18.0,30.15,WNW,288,6.0,12.0,63,0.00,,BKN065,0.00,VWS V14.01,2013-03-13 06:33:00,
2013-03-13 01:34:00,29.0,18.0,30.15,WNW,295,1.0,14.0,63,0.00,,BKN065,0.00,VWS V14.01,2013-03-13 06:34:00,
2013-03-13 01:38:00,28.9,17.9,30.15,WNW,298,7.0,14.0,63,0.00,,BKN065,0.00,VWS V14.01,2013-03-13 06:38:00,
2013-03-13 01:39:00,28.9,17.9,30.15,WNW,287,0.0,14.0,63,0.00,,BKN065,0.00,VWS V14.01,2013-03-13 06:39:00,
2013-03-13 01:43:00,28.9,18.3,30.15,WNW,298,7.0,15.0,64,0.00,,BKN065,0.00,VWS V14.01,2013-03-13 06:43:00,
2013-03-13 01:44:00,28.9,18.3,30.15,NW,325,9.0,15.0,64,0.00,,BKN065,0.00,VWS V14.01,2013-03-13 06:44:00,
2013-03-13 01:45:00,28.9,18.3,30.15,WNW,291,9.0,15.0,64,0.00,,BKN065,0.00,VWS V14.01,2013-03-13 06:45:00,
2013-03-13 01:48:00,28.9,18.3,30.15,WNW,290,10.0,15.0,64,0.00,,SCT037,0.00,VWS V14.01,2013-03-13 06:48:00,
2013-03-13 01:49:00,28.9,18.3,30.15,WNW,293,3.0,15.0,64,0.00,,SCT037,0.00,VWS V14.01,2013-03-13 06:49:00,
2013-03-13 01:50:00,28.9,18.3,30.15,NW,306,0.0,15.0,64,0.00,,SCT037,0.00,VWS V14.01,2013-03-13 06:50:00,
2013-03-13 01:53:00,28.9,17.9,30.15,NW,311,10.0,17.0,63,0.00,,SCT037,0.00,VWS V14.01,2013-03-13 06:53:00,
2013-03-13 01:54:00,28.9,17.9,30.15,WNW,288,7.0,17.0,63,0.00,,SCT037,0.00,VWS V14.01,2013-03-13 06:54:00,
2013-03-13 01:55:00,28.9,17.9,30.15,WNW,298,4.0,17.0,63,0.00,,SCT037,0.00,VWS V14.01,2013-03-13 06:55:00,
2013-03-13 01:58:00,28.7,17.7,30.15,West,280,11.0,17.0,63,0.00,,SCT037,0.00,VWS V14.01,2013-03-13 06:58:00,
2013-03-13 01:59:00,28.7,17.7,30.15,NW,306,5.0,17.0,63,0.00,,SCT037,0.00,VWS V14.01,2013-03-13 06:59:00,
2013-03-13 02:00:00,28.7,17.7,30.15,North,355,9.0,12.0,63,0.00,,SCT037,0.00,VWS V14.01,2013-03-13 07:00:00,
2013-03-13 02:03:00,28.7,18.1,30.15,NW,315,5.0,17.0,64,0.00,,CLR,0.00,VWS V14.01,2013-03-13 07:03:00,
2013-03-13 02:04:00,28.7,18.1,30.15,WNW,284,3.0,17.0,64,0.00,,CLR,0.00,VWS V14.01,2013-03-13 07:04:00,
2013-03-13 02:05:00,28.7,17.7,30.15,West,279,4.0,17.0,63,0.00,,CLR,0.00,VWS V14.01,2013-03-13 07:05:00,
2013-03-13 02:09:00,28.9,17.9,30.15,WNW,288,2.0,17.0,63,0.00,,CLR,0.00,VWS V14.01,2013-03-13 07:09:00,
2013-03-13 02:10:00,28.9,17.5,30.15,West,267,6.0,17.0,62,0.00,,CLR,0.00,VWS V14.01,2013-03-13 07:10:00,
2013-03-13 02:14:00,29.0,17.2,30.15,West,263,4.0,19.0,61,0.00,,CLR,0.00,VWS V14.01,2013-03-13 07:14:00,
2013-03-13 02:15:00,29.0,17.2,30.15,West,279,1.0,19.0,61,0.00,,CLR,0.00,VWS V14.01,2013-03-13 07:15:00,
2013-03-13 02:19:00,29.0,17.2,30.15,WNW,293,4.0,19.0,61,0.00,,CLR,0.00,VWS V14.01,2013-03-13 07:19:00,
2013-03-13 02:20:00,29.0,17.6,30.15,NW,312,3.0,19.0,62,0.00,,CLR,0.00,VWS V14.01,2013-03-13 07:20:00,
2013-03-13 02:24:00,28.9,17.5,30.15,West,279,9.0,19.0,62,0.00,,CLR,0.00,VWS V14.01,2013-03-13 07:24:00,
2013-03-13 02:25:00,28.9,17.5,30.15,NW,325,5.0,19.0,62,0.00,,CLR,0.00,VWS V14.01,2013-03-13 07:25:00,
2013-03-13 02:29:00,28.9,17.5,30.15,WNW,300,10.0,19.0,62,0.00,,CLR,0.00,VWS V14.01,2013-03-13 07:29:00,
2013-03-13 02:30:00,28.9,17.5,30.15,WNW,289,10.0,11.0,62,0.00,,CLR,0.00,VWS V14.01,2013-03-13 07:30:00,
2013-03-13 02:34:00,28.9,16.8,30.15,NNW,338,5.0,19.0,60,0.00,,CLR,0.00,VWS V14.01,2013-03-13 07:34:00,
2013-03-13 02:35:00,28.9,16.8,30.15,WNW,288,6.0,19.0,60,0.00,,CLR,0.00,VWS V14.01,2013-03-13 07:35:00,
2013-03-13 02:40:00,28.7,16.6,30.15,West,279,7.0,19.0,60,0.00,,CLR,0.00,VWS V14.01,2013-03-13 07:40:00,
2013-03-13 02:45:00,28.6,16.5,30.16,NW,316,15.0,19.0,60,0.00,,CLR,0.00,VWS V14.01,2013-03-13 07:45:00,
2013-03-13 02:50:00,28.6,16.9,30.16,West,267,9.0,21.0,61,0.00,,,0.00,VWS V14.01,2013-03-13 07:50:00,
2013-03-13 02:55:00,28.4,17.1,30.16,NNW,330,10.0,21.0,62,0.00,,,0.00,VWS V14.01,2013-03-13 07:55:00,
2013-03-13 03:00:00,28.3,17.0,30.15,NW,318,15.0,21.0,62,0.00,,,0.00,VWS V14.01,2013-03-13 08:00:00,
2013-03-13 03:08:00,28.1,17.1,30.15,West,266,5.0,21.0,63,0.00,,,0.00,VWS V14.01,2013-03-13 08:08:00,
2013-03-13 03:09:00,28.0,17.0,30.15,NW,307,2.0,21.0,63,0.00,,,0.00,VWS V14.01,2013-03-13 08:09:00,
2013-03-13 03:13:00,27.8,16.9,30.15,NW,317,4.0,21.0,63,0.00,,,0.00,VWS V14.01,2013-03-13 08:13:00,
2013-03-13 03:14:00,27.8,16.9,30.16,West,259,6.0,21.0,63,0.00,,,0.00,VWS V14.01,2013-03-13 08:14:00,
2013-03-13 03:18:00,27.8,16.5,30.16,WSW,249,2.0,21.0,62,0.00,,,0.00,VWS V14.01,2013-03-13 08:18:00,
2013-03-13 03:19:00,27.8,16.9,30.16,SW,236,1.0,21.0,63,0.00,,,0.00,VWS V14.01,2013-03-13 08:19:00,
2013-03-13 03:23:00,27.8,16.9,30.16,WNW,302,4.0,21.0,63,0.00,,,0.00,VWS V14.01,2013-03-13 08:23:00,
2013-03-13 03:24:00,27.8,16.9,30.16,NW,321,3.0,21.0,63,0.00,,,0.00,VWS V14.01,2013-03-13 08:24:00,
2013-03-13 03:28:00,27.8,16.9,30.16,NW,313,12.0,21.0,63,0.00,,,0.00,VWS V14.01,2013-03-13 08:28:00,
2013-03-13 03:29:00,27.8,16.9,30.16,West,272,4.0,21.0,63,0.00,,,0.00,VWS V14.01,2013-03-13 08:29:00,
2013-03-13 03:30:00,27.8,16.9,30.16,WNW,293,2.0,21.0,63,0.00,,CLR,0.00,VWS V14.01,2013-03-13 08:30:00,
2013-03-13 03:33:00,27.8,16.9,30.16,WNW,286,6.0,12.0,63,0.00,,,0.00,VWS V14.01,2013-03-13 08:33:00,
2013-03-13 03:34:00,27.8,16.9,30.16,NNW,336,13.0,14.0,63,0.00,,,0.00,VWS V14.01,2013-03-13 08:34:00,
2013-03-13 03:38:00,27.8,16.9,30.16,NW,311,5.0,14.0,63,0.00,,,0.00,VWS V14.01,2013-03-13 08:38:00,
2013-03-13 03:39:00,27.8,16.9,30.16,NW,317,4.0,14.0,63,0.00,,,0.00,VWS V14.01,2013-03-13 08:39:00,
2013-03-13 08:30:00,27.5,16.6,30.28,West,278,6.0,6.0,63,0.00,,,0.00,VWS V14.01,2013-03-13 13:30:00,
2013-03-13 08:31:00,27.5,16.6,30.28,WNW,294,0.0,6.0,63,0.00,,,0.00,VWS V14.01,2013-03-13 13:31:00,
2013-03-13 08:32:00,27.5,16.6,30.28,WNW,299,5.0,12.0,63,0.00,,SCT025,0.00,VWS V14.01,2013-03-13 13:32:00,
2013-03-13 08:33:00,27.5,16.6,30.28,West,277,1.0,12.0,63,0.00,,SCT025,0.00,VWS V14.01,2013-03-13 13:33:00,
2013-03-13 08:34:00,27.5,16.6,30.28,WNW,300,7.0,12.0,63,0.00,,SCT025,0.00,VWS V14.01,2013-03-13 13:34:00,
2013-03-13 08:35:00,27.7,16.8,30.28,WNW,296,3.0,15.0,63,0.00,,SCT025,0.00,VWS V14.01,2013-03-13 13:35:00,
2013-03-13 09:00:00,28.1,16.8,30.30,West,275,7.0,21.0,62,0.00,,,0.00,VWS V14.01,2013-03-13 14:00:00,
2013-03-13 09:30:00,27.5,16.9,30.28,West,281,6.0,6.0,64,0.00,,,0.00,VWS V14.01,2013-03-13 14:30:00,
2013-03-13 09:34:00,27.7,16.8,30.28,NW,304,2.0,15.0,63,0.00,,SCT025,0.00,VWS V14.01,2013-03-13 14:34:00,
2013-03-13 09:35:00,27.7,16.8,30.28,West,277,9.0,17.0,63,0.00,,SCT025,0.00,VWS V14.01,2013-03-13 14:35:00,
2013-03-13 09:40:00,27.7,16.0,30.28,NW,322,14.0,21.0,61,0.00,,SCT025,0.00,VWS V14.01,2013-03-13 14:40:00,
2013-03-13 09:41:00,27.7,16.0,30.28,WNW,302,13.0,21.0,61,0.00,,SCT025,0.00,VWS V14.01,2013-03-13 14:41:00,
2013-03-13 09:45:00,28.3,17.0,30.29,WNW,297,4.0,21.0,62,0.00,,SCT025,0.00,VWS V14.01,2013-03-13 14:45:00,
2013-03-13 09:46:00,28.3,16.6,30.29,NW,315,9.0,21.0,61,0.00,,SCT025,0.00,VWS V14.01,2013-03-13 14:46:00,
2013-03-13 09:50:00,28.1,16.8,30.29,WNW,284,8.0,21.0,62,0.00,,SCT025,0.00,VWS V14.01,2013-03-13 14:50:00,
2013-03-13 09:51:00,28.0,16.7,30.29,WNW,290,4.0,21.0,62,0.00,,SCT025,0.00,VWS V14.01,2013-03-13 14:51:00,
2013-03-13 09:55:00,28.0,16.7,30.29,WNW,301,1.0,21.0,62,0.00,,SCT025,0.00,VWS V14.01,2013-03-13 14:55:00,
2013-03-13 09:56:00,28.0,16.7,30.29,WNW,290,1.0,21.0,62,0.00,,SCT025,0.00,VWS V14.01,2013-03-13 14:56:00,
2013-03-13 10:00:00,28.0,16.7,30.30,NNW,333,20.0,21.0,62,0.00,,SCT025,0.00,VWS V14.01,2013-03-13 15:00:00,
2013-03-13 10:01:00,28.0,16.7,30.30,WNW,285,10.0,21.0,62,0.00,,SCT028,0.00,VWS V14.01,2013-03-13 15:01:00,
2013-03-13 10:05:00,28.3,16.6,30.30,NW,307,7.0,21.0,61,0.00,,SCT028,0.00,VWS V14.01,2013-03-13 15:05:00,
2013-03-13 10:06:00,28.3,16.6,30.30,WNW,300,10.0,21.0,61,0.00,,SCT028,0.00,VWS V14.01,2013-03-13 15:06:00,
2013-03-13 10:07:00,28.3,16.6,30.30,NW,307,3.0,21.0,61,0.00,,SCT028,0.00,VWS V14.01,2013-03-13 15:07:00,
2013-03-13 10:10:00,28.1,16.4,30.30,NW,316,7.0,21.0,61,0.00,,SCT028,0.00,VWS V14.01,2013-03-13 15:10:00,
2013-03-13 10:11:00,28.1,16.4,30.30,WNW,296,13.0,21.0,61,0.00,,SCT028,0.00,VWS V14.01,2013-03-13 15:11:00,
2013-03-13 10:12:00,28.1,16.0,30.30,NNW,340,5.0,21.0,60,0.00,,SCT028,0.00,VWS V14.01,2013-03-13 15:12:00,
2013-03-13 10:16:00,28.0,16.3,30.31,WNW,300,4.0,21.0,61,0.00,,SCT028,0.00,VWS V14.01,2013-03-13 15:16:00,
2013-03-13 10:17:00,28.1,16.8,30.31,NW,313,10.0,21.0,62,0.00,,SCT028,0.00,VWS V14.01,2013-03-13 15:17:00,
2013-03-13 10:21:00,28.6,16.5,30.31,WNW,288,10.0,21.0,60,0.00,,SCT028,0.00,VWS V14.01,2013-03-13 15:21:00,
2013-03-13 10:22:00,28.6,16.1,30.31,NW,309,4.0,21.0,59,0.00,,SCT028,0.00,VWS V14.01,2013-03-13 15:22:00,
2013-03-13 10:26:00,28.7,16.6,30.31,West,277,1.0,21.0,60,0.00,,SCT028,0.00,VWS V14.01,2013-03-13 15:26:00,
2013-03-13 10:27:00,28.7,16.6,30.31,West,273,3.0,21.0,60,0.00,,SCT028,0.00,VWS V14.01,2013-03-13 15:27:00,
2013-03-13 10:30:00,28.9,16.8,30.31,West,277,1.0,21.0,60,0.00,,CLR,0.00,VWS V14.01,2013-03-13 15:30:00,
2013-03-13 10:31:00,29.0,16.5,30.31,NW,317,12.0,14.0,59,0.00,,SCT028,0.00,VWS V14.01,2013-03-13 15:31:00,
2013-03-13 10:32:00,28.9,16.4,30.31,NW,323,5.0,14.0,59,0.00,,SCT028,0.00,VWS V14.01,2013-03-13 15:32:00,
2013-03-13 10:36:00,28.7,16.2,30.31,WNW,284,2.0,23.0,59,0.00,,SCT028,0.00,VWS V14.01,2013-03-13 15:36:00,
2013-03-13 10:37:00,28.9,16.4,30.31,NNE,12,6.0,23.0,59,0.00,,SCT028,0.00,VWS V14.01,2013-03-13 15:37:00,
2013-03-13 10:42:00,29.2,15.9,30.31,WNW,296,8.0,23.0,57,0.00,,SCT028,0.00,VWS V14.01,2013-03-13 15:42:00,
2013-03-13 10:47:00,29.0,15.7,30.32,WNW,286,0.0,23.0,57,0.00,,BKN034,0.00,VWS V14.01,2013-03-13 15:47:00,
2013-03-13 10:48:00,29.0,15.7,30.32,WNW,292,2.0,23.0,57,0.00,,BKN034,0.00,VWS V14.01,2013-03-13 15:48:00,
2013-03-13 11:50:00,30.2,16.8,30.34,NNW,336,9.0,9.0,57,0.00,,,0.00,VWS V14.01,2013-03-13 16:50:00,
2013-03-13 11:55:00,30.9,16.2,30.34,NW,321,13.0,19.0,54,0.00,,,0.00,VWS V14.01,2013-03-13 16:55:00,
2013-03-13 12:00:00,30.5,15.9,30.35,North,5,11.0,22.0,54,0.00,,,0.00,VWS V14.01,2013-03-13 17:00:00,
2013-03-13 12:05:00,30.5,16.7,30.35,NW,323,12.0,14.0,56,0.00,,SCT034,0.00,VWS V14.01,2013-03-13 17:05:00,
2013-03-13 12:10:00,31.2,17.8,30.35,NW,311,12.0,16.0,57,0.00,,SCT034,0.00,VWS V14.01,2013-03-13 17:10:00,
2013-03-13 12:15:00,31.4,16.3,30.35,NNW,329,12.0,16.0,53,0.00,,SCT034,0.00,VWS V14.01,2013-03-13 17:15:00,
2013-03-13 12:20:00,31.8,17.1,30.35,North,349,15.0,17.0,54,0.00,,SCT034,0.00,VWS V14.01,2013-03-13 17:20:00,
2013-03-13 12:21:00,31.7,16.5,30.35,NW,311,5.0,17.0,53,0.00,,SCT034,0.00,VWS V14.01,2013-03-13 17:21:00,
2013-03-13 12:25:00,31.7,17.0,30.35,NNW,328,10.0,17.0,54,0.00,,SCT034,0.00,VWS V14.01,2013-03-13 17:25:00,
2013-03-13 12:26:00,31.8,17.1,30.35,NNW,340,10.0,17.0,54,0.00,,SCT034,0.00,VWS V14.01,2013-03-13 17:26:00,
2013-03-13 12:30:00,32.3,16.7,30.35,WSW,255,10.0,17.0,52,0.00,,OVC041,0.00,VWS V14.01,2013-03-13 17:30:00,
2013-03-13 12:31:00,32.1,16.5,30.35,West,279,5.0,13.0,52,0.00,,SCT034,0.00,VWS V14.01,2013-03-13 17:31:00,
2013-03-13 12:32:00,32.1,16.5,30.35,WNW,297,14.0,15.0,52,0.00,,SCT033,0.00,VWS V14.01,2013-03-13 17:32:00,
2013-03-13 12:36:00,31.8,16.2,30.35,WNW,302,11.0,17.0,52,0.00,,SCT033,0.00,VWS V14.01,2013-03-13 17:36:00,
2013-03-13 12:37:00,31.8,16.2,30.35,North,5,5.0,17.0,52,0.00,,SCT033,0.00,VWS V14.01,2013-03-13 17:37:00,
2013-03-13 12:41:00,32.0,16.8,30.35,NW,310,13.0,18.0,53,0.00,,SCT033,0.00,VWS V14.01,2013-03-13 17:41:00,
2013-03-13 12:42:00,32.0,16.8,30.35,WNW,294,7.0,18.0,53,0.00,,SCT033,0.00,VWS V14.01,2013-03-13 17:42:00,
2013-03-13 12:47:00,32.4,17.6,30.36,NW,320,5.0,18.0,54,0.00,,SCT033,0.00,VWS V14.01,2013-03-13 17:47:00,
2013-03-13 12:48:00,32.8,18.0,30.36,North,355,6.0,18.0,54,0.00,,SCT033,0.00,VWS V14.01,2013-03-13 17:48:00,
2013-03-13 12:52:00,33.0,17.3,30.36,NW,315,5.0,18.0,52,0.00,,SCT033,0.00,VWS V14.01,2013-03-13 17:52:00,
2013-03-13 12:53:00,33.0,16.9,30.36,NNW,344,13.0,18.0,51,0.00,,SCT033,0.00,VWS V14.01,2013-03-13 17:53:00,
2013-03-13 12:57:00,32.6,17.4,30.36,WNW,298,15.0,19.0,53,0.00,,SCT033,0.00,VWS V14.01,2013-03-13 17:57:00,
2013-03-13 12:58:00,32.7,17.0,30.36,NNW,340,13.0,19.0,52,0.00,,SCT033,0.00,VWS V14.01,2013-03-13 17:58:00,
2013-03-13 13:00:00,32.7,16.6,30.36,NW,310,14.0,19.0,51,0.00,,OVC041,0.00,VWS V14.01,2013-03-13 18:00:00,
2013-03-13 13:02:00,32.7,16.6,30.36,NW,326,15.0,18.0,51,0.00,,SCT035,0.00,VWS V14.01,2013-03-13 18:02:00,
2013-03-13 13:03:00,32.6,16.0,30.36,NW,313,14.0,18.0,50,0.00,,SCT035,0.00,VWS V14.01,2013-03-13 18:03:00,
2013-03-13 13:07:00,32.6,16.5,30.36,NW,313,11.0,20.0,51,0.00,,SCT035,0.00,VWS V14.01,2013-03-13 18:07:00,
2013-03-13 13:08:00,32.6,16.9,30.36,WNW,285,13.0,20.0,52,0.00,,SCT035,0.00,VWS V14.01,2013-03-13 18:08:00,
2013-03-13 13:12:00,33.4,17.2,30.36,NE,47,7.0,20.0,51,0.00,,SCT035,0.00,VWS V14.01,2013-03-13 18:12:00,
2013-03-13 13:13:00,33.3,16.7,30.36,West,276,16.0,20.0,50,0.00,,SCT035,0.00,VWS V14.01,2013-03-13 18:13:00,
2013-03-13 13:17:00,32.4,16.3,30.36,NW,321,10.0,20.0,51,0.00,,SCT035,0.00,VWS V14.01,2013-03-13 18:17:00,
2013-03-13 13:19:00,32.4,16.8,30.36,NW,306,3.0,20.0,52,0.00,,SCT035,0.00,VWS V14.01,2013-03-13 18:19:00,
2013-03-13 13:22:00,32.4,16.8,30.36,NNE,18,4.0,21.0,52,0.00,,SCT035,0.00,VWS V14.01,2013-03-13 18:22:00,
2013-03-13 13:24:00,32.6,16.9,30.36,NNW,333,13.0,21.0,52,0.00,,SCT035,0.00,VWS V14.01,2013-03-13 18:24:00,
2013-03-13 13:27:00,32.8,16.2,30.36,WNW,297,5.0,21.0,50,0.00,,SCT035,0.00,VWS V14.01,2013-03-13 18:27:00,
2013-03-13 13:29:00,32.8,16.2,30.36,WNW,296,4.0,21.0,50,0.00,,SCT035,0.00,VWS V14.01,2013-03-13 18:29:00,
2013-03-13 13:30:00,33.0,16.9,30.36,NW,323,9.0,21.0,51,0.00,,OVC041,0.00,VWS V14.01,2013-03-13 18:30:00,
2013-03-13 13:32:00,33.6,17.0,30.36,WNW,296,4.0,19.0,50,0.00,,SCT035,0.00,VWS V14.01,2013-03-13 18:32:00,
2013-03-13 13:33:00,33.7,17.5,30.36,WNW,303,10.0,19.0,51,0.00,,SCT035,0.00,VWS V14.01,2013-03-13 18:33:00,
2013-03-13 13:34:00,33.6,17.0,30.36,NNW,330,10.0,19.0,50,0.00,,SCT035,0.00,VWS V14.01,2013-03-13 18:34:00,
2013-03-13 13:37:00,33.4,16.8,30.36,NNW,334,23.0,23.0,50,0.00,,SCT035,0.00,VWS V14.01,2013-03-13 18:37:00,
2013-03-13 13:38:00,33.4,16.8,30.36,North,351,15.0,23.0,50,0.00,,SCT035,0.00,VWS V14.01,2013-03-13 18:38:00,
2013-03-13 13:39:00,33.3,16.2,30.36,North,5,14.0,23.0,49,0.00,,SCT035,0.00,VWS V14.01,2013-03-13 18:39:00,
2013-03-13 13:43:00,33.1,16.5,30.36,North,360,8.0,23.0,50,0.00,,SCT035,0.00,VWS V14.01,2013-03-13 18:43:00,
2013-03-13 13:44:00,33.1,16.5,30.36,North,5,7.0,23.0,50,0.00,,SCT035,0.00,VWS V14.01,2013-03-13 18:44:00,
2013-03-13 13:48:00,33.6,17.9,30.36,WNW,299,9.0,23.0,52,0.00,,SCT043,0.00,VWS V14.01,2013-03-13 18:48:00,
2013-03-13 13:49:00,34.0,17.8,30.36,NW,323,5.0,23.0,51,0.00,,SCT043,0.00,VWS V14.01,2013-03-13 18:49:00,
2013-03-13 13:53:00,34.2,17.5,30.36,NNW,331,4.0,23.0,50,0.00,,SCT043,0.00,VWS V14.01,2013-03-13 18:53:00,
2013-03-13 13:54:00,34.2,17.5,30.36,NNW,332,7.0,23.0,50,0.00,,SCT043,0.00,VWS V14.01,2013-03-13 18:54:00,
2013-03-13 13:58:00,34.2,16.6,30.36,WNW,286,5.0,23.0,48,0.00,,SCT043,0.00,VWS V14.01,2013-03-13 18:58:00,
2013-03-13 13:59:00,34.0,17.3,30.36,NW,312,12.0,23.0,50,0.00,,SCT043,0.00,VWS V14.01,2013-03-13 18:59:00,
2013-03-13 14:00:00,34.2,17.5,30.35,NW,323,1.0,23.0,50,0.00,,SCT043,0.00,VWS V14.01,2013-03-13 19:00:00,
2013-03-13 14:03:00,34.8,18.1,30.35,North,360,11.0,15.0,50,0.00,,SCT037,0.00,VWS V14.01,2013-03-13 19:03:00,
2013-03-13 14:04:00,34.9,17.7,30.35,NNW,339,4.0,15.0,49,0.00,,SCT037,0.00,VWS V14.01,2013-03-13 19:04:00,
2013-03-13 14:05:00,34.9,17.7,30.35,NW,325,7.0,20.0,49,0.00,,SCT037,0.00,VWS V14.01,2013-03-13 19:05:00,
2013-03-13 14:08:00,34.8,17.1,30.35,NW,306,10.0,20.0,48,0.00,,SCT037,0.00,VWS V14.01,2013-03-13 19:08:00,
2013-03-13 14:09:00,34.5,17.3,30.35,NW,321,15.0,20.0,49,0.00,,SCT037,0.00,VWS V14.01,2013-03-13 19:09:00,
2013-03-13 14:10:00,34.3,17.1,30.35,North,355,7.0,20.0,49,0.00,,SCT037,0.00,VWS V14.01,2013-03-13 19:10:00,
2013-03-13 14:13:00,34.3,17.6,30.35,WNW,303,6.0,20.0,50,0.00,,SCT037,0.00,VWS V14.01,2013-03-13 19:13:00,
2013-03-13 14:14:00,34.5,17.8,30.35,WNW,284,5.0,20.0,50,0.00,,SCT037,0.00,VWS V14.01,2013-03-13 19:14:00,
2013-03-13 14:15:00,34.6,17.9,30.35,West,281,9.0,20.0,50,0.00,,SCT035,0.00,VWS V14.01,2013-03-13 19:15:00,
2013-03-13 14:18:00,34.8,18.1,30.35,NNW,327,10.0,20.0,50,0.00,,SCT035,0.00,VWS V14.01,2013-03-13 19:18:00,
2013-03-13 14:19:00,34.9,18.2,30.35,NW,308,7.0,20.0,50,0.00,,SCT035,0.00,VWS V14.01,2013-03-13 19:19:00,
2013-03-13 14:20:00,34.9,18.2,30.35,West,278,9.0,20.0,50,0.00,,SCT035,0.00,VWS V14.01,2013-03-13 19:20:00,
2013-03-13 14:23:00,35.1,17.9,30.35,NW,310,2.0,20.0,49,0.00,,SCT035,0.00,VWS V14.01,2013-03-13 19:23:00,
2013-03-13 14:24:00,35.2,18.0,30.35,NW,309,15.0,20.0,49,0.00,,SCT035,0.00,VWS V14.01,2013-03-13 19:24:00,
2013-03-13 14:25:00,35.2,18.4,30.35,NW,311,10.0,20.0,50,0.00,,SCT035,0.00,VWS V14.01,2013-03-13 19:25:00,
2013-03-13 14:28:00,35.1,17.9,30.35,NW,307,10.0,20.0,49,0.00,,SCT035,0.00,VWS V14.01,2013-03-13 19:28:00,
2013-03-13 14:29:00,34.9,17.2,30.35,WNW,294,5.0,20.0,48,0.00,,SCT035,0.00,VWS V14.01,2013-03-13 19:29:00,
2013-03-13 14:30:00,34.9,17.7,30.35,NNW,346,16.0,20.0,49,0.00,,SCT035,0.00,VWS V14.01,2013-03-13 19:30:00,
2013-03-13 14:33:00,34.9,16.7,30.35,NW,325,5.0,18.0,47,0.00,,SCT037,0.00,VWS V14.01,2013-03-13 19:33:00,
2013-03-13 14:34:00,34.9,17.2,30.35,NW,309,8.0,18.0,48,0.00,,SCT037,0.00,VWS V14.01,2013-03-13 19:34:00,
2013-03-13 14:35:00,34.9,16.7,30.35,NW,319,8.0,18.0,47,0.00,,SCT037,0.00,VWS V14.01,2013-03-13 19:35:00,
2013-03-13 14:39:00,35.1,17.4,30.35,WNW,297,3.0,18.0,48,0.00,,SCT037,0.00,VWS V14.01,2013-03-13 19:39:00,
2013-03-13 14:40:00,35.1,17.4,30.35,WNW,297,9.0,18.0,48,0.00,,SCT037,0.00,VWS V14.01,2013-03-13 19:40:00,
2013-03-13 14:44:00,35.2,17.5,30.35,West,273,1.0,19.0,48,0.00,,SCT037,0.00,VWS V14.01,2013-03-13 19:44:00,
2013-03-13 14:45:00,35.4,17.7,30.35,NW,307,6.0,19.0,48,0.00,,SCT037,0.00,VWS V14.01,2013-03-13 19:45:00,
2013-03-13 14:49:00,35.4,16.7,30.35,NW,326,3.0,19.0,46,0.00,,SCT039,0.00,VWS V14.01,2013-03-13 19:49:00,
2013-03-13 14:50:00,35.5,17.8,30.35,North,9,6.0,19.0,48,0.00,,SCT039,0.00,VWS V14.01,2013-03-13 19:50:00,
2013-03-13 14:54:00,35.2,17.0,30.35,North,350,6.0,19.0,47,0.00,,SCT039,0.00,VWS V14.01,2013-03-13 19:54:00,
2013-03-13 14:55:00,35.2,17.0,30.35,WSW,252,5.0,19.0,47,0.00,,SCT039,0.00,VWS V14.01,2013-03-13 19:55:00,
2013-03-13 14:56:00,35.4,17.7,30.35,WNW,294,4.0,19.0,48,0.00,,SCT039,0.00,VWS V14.01,2013-03-13 19:56:00,
2013-03-13 14:59:00,35.5,16.8,30.35,West,276,6.0,19.0,46,0.00,,SCT039,0.00,VWS V14.01,2013-03-13 19:59:00,
2013-03-13 15:00:00,35.7,17.0,30.34,WNW,286,10.0,11.0,46,0.00,,SCT039,0.00,VWS V14.01,2013-03-13 20:00:00,
2013-03-13 15:02:00,35.5,16.8,30.34,NW,323,2.0,13.0,46,0.00,,CLR,0.00,VWS V14.01,2013-03-13 20:02:00,
2013-03-13 15:04:00,35.7,17.0,30.34,NW,324,9.0,13.0,46,0.00,,CLR,0.00,VWS V14.01,2013-03-13 20:04:00,
2013-03-13 15:05:00,35.8,17.6,30.34,West,263,9.0,13.0,47,0.00,,CLR,0.00,VWS V14.01,2013-03-13 20:05:00,
2013-03-13 15:07:00,35.9,17.6,30.34,NW,304,3.0,13.0,47,0.00,,CLR,0.00,VWS V14.01,2013-03-13 20:07:00,
2013-03-13 15:10:00,36.2,17.9,30.34,North,5,5.0,16.0,47,0.00,,CLR,0.00,VWS V14.01,2013-03-13 20:10:00,
2013-03-13 15:13:00,36.1,17.3,30.34,North,350,7.0,16.0,46,0.00,,CLR,0.00,VWS V14.01,2013-03-13 20:13:00,
2013-03-13 15:15:00,36.1,17.3,30.34,NW,322,5.0,16.0,46,0.00,,CLR,0.00,VWS V14.01,2013-03-13 20:15:00,
2013-03-13 15:18:00,36.5,17.7,30.34,NW,312,5.0,16.0,46,0.00,,CLR,0.00,VWS V14.01,2013-03-13 20:18:00,
2013-03-13 15:20:00,36.7,17.9,30.34,North,360,3.0,16.0,46,0.00,,CLR,0.00,VWS V14.01,2013-03-13 20:20:00,
2013-03-13 15:21:00,36.9,18.1,30.34,NW,309,2.0,16.0,46,0.00,,CLR,0.00,VWS V14.01,2013-03-13 20:21:00,
2013-03-13 15:23:00,37.1,18.2,30.34,NW,323,9.0,16.0,46,0.00,,CLR,0.00,VWS V14.01,2013-03-13 20:23:00,
2013-03-13 15:25:00,36.9,17.6,30.34,West,261,7.0,16.0,45,0.00,,CLR,0.00,VWS V14.01,2013-03-13 20:25:00,
2013-03-13 15:27:00,36.5,16.7,30.34,WNW,284,5.0,17.0,44,0.00,,CLR,0.00,VWS V14.01,2013-03-13 20:27:00,
2013-03-13 15:28:00,36.1,16.8,30.34,WNW,296,3.0,17.0,45,0.00,,CLR,0.00,VWS V14.01,2013-03-13 20:28:00,
2013-03-13 15:30:00,36.2,17.4,30.34,NW,316,13.0,13.0,46,0.00,,CLR,0.00,VWS V14.01,2013-03-13 20:30:00,
2013-03-13 15:31:00,36.2,17.4,30.34,NW,326,9.0,14.0,46,0.00,,CLR,0.00,VWS V14.01,2013-03-13 20:31:00,
2013-03-13 15:32:00,36.2,17.9,30.34,NNW,342,7.0,18.0,47,0.00,,CLR,0.00,VWS V14.01,2013-03-13 20:32:00,
2013-03-13 15:33:00,36.2,16.9,30.34,WNW,295,13.0,19.0,45,0.00,,CLR,0.00,VWS V14.01,2013-03-13 20:33:00,
2013-03-13 15:36:00,36.1,17.3,30.34,NNW,332,5.0,20.0,46,0.00,,CLR,0.00,VWS V14.01,2013-03-13 20:36:00,
2013-03-13 15:37:00,36.4,17.6,30.34,NW,313,10.0,20.0,46,0.00,,CLR,0.00,VWS V14.01,2013-03-13 20:37:00,
2013-03-13 15:38:00,36.5,17.2,30.34,WNW,303,5.0,20.0,45,0.00,,CLR,0.00,VWS V14.01,2013-03-13 20:38:00,
2013-03-13 15:41:00,36.8,17.5,30.34,WNW,292,4.0,20.0,45,0.00,,CLR,0.00,VWS V14.01,2013-03-13 20:41:00,
2013-03-13 15:42:00,36.8,16.4,30.34,NE,49,7.0,20.0,43,0.00,,CLR,0.00,VWS V14.01,2013-03-13 20:42:00,
2013-03-13 15:43:00,36.8,17.0,30.34,NW,313,7.0,20.0,44,0.00,,CLR,0.00,VWS V14.01,2013-03-13 20:43:00,
2013-03-13 15:46:00,36.8,17.5,30.35,NW,322,2.0,20.0,45,0.00,,CLR,0.00,VWS V14.01,2013-03-13 20:46:00,
2013-03-13 15:47:00,36.8,17.0,30.35,WNW,284,3.0,20.0,44,0.00,,CLR,0.00,VWS V14.01,2013-03-13 20:47:00,
2013-03-13 15:48:00,36.8,17.0,30.35,NW,322,7.0,20.0,44,0.00,,CLR,0.00,VWS V14.01,2013-03-13 20:48:00,
2013-03-13 15:51:00,36.7,16.3,30.35,North,360,11.0,20.0,43,0.00,,CLR,0.00,VWS V14.01,2013-03-13 20:51:00,
2013-03-13 15:52:00,36.7,16.9,30.35,NW,315,13.0,20.0,44,0.00,,CLR,0.00,VWS V14.01,2013-03-13 20:52:00,
2013-03-13 15:53:00,36.5,15.6,30.35,NNW,334,6.0,20.0,42,0.00,,CLR,0.00,VWS V14.01,2013-03-13 20:53:00,
2013-03-13 15:56:00,36.7,16.3,30.35,NW,308,3.0,20.0,43,0.00,,CLR,0.00,VWS V14.01,2013-03-13 20:56:00,
2013-03-13 15:57:00,36.7,16.3,30.35,WNW,299,3.0,20.0,43,0.00,,CLR,0.00,VWS V14.01,2013-03-13 20:57:00,
2013-03-13 15:58:00,36.8,16.4,30.35,NW,316,4.0,20.0,43,0.00,,CLR,0.00,VWS V14.01,2013-03-13 20:58:00,
2013-03-13 15:59:00,36.8,16.4,30.35,NNW,335,7.0,20.0,43,0.00,,CLR,0.00,VWS V14.01,2013-03-13 20:59:00,
2013-03-13 16:00:00,37.1,16.7,30.34,WNW,284,4.0,20.0,43,0.00,,OVC041,0.00,VWS V14.01,2013-03-13 21:00:00,
2013-03-13 16:01:00,37.2,16.2,30.34,North,349,12.0,17.0,42,0.00,,SCT044,0.00,VWS V14.01,2013-03-13 21:01:00,
2013-03-13 16:03:00,37.4,15.9,30.34,WNW,283,3.0,17.0,41,0.00,,SCT044,0.00,VWS V14.01,2013-03-13 21:03:00,
2013-03-13 16:04:00,37.4,16.4,30.34,NW,321,6.0,17.0,42,0.00,,SCT044,0.00,VWS V14.01,2013-03-13 21:04:00,
2013-03-13 16:06:00,37.4,16.4,30.34,NNW,328,16.0,17.0,42,0.00,,SCT044,0.00,VWS V14.01,2013-03-13 21:06:00,
2013-03-13 16:08:00,37.5,16.5,30.34,NW,307,0.0,17.0,42,0.00,,SCT044,0.00,VWS V14.01,2013-03-13 21:08:00,
2013-03-13 16:09:00,37.7,17.2,30.34,NW,311,9.0,17.0,43,0.00,,SCT044,0.00,VWS V14.01,2013-03-13 21:09:00,
2013-03-13 16:12:00,37.4,17.0,30.34,NW,308,6.0,17.0,43,0.00,,SCT044,0.00,VWS V14.01,2013-03-13 21:12:00,
2013-03-13 16:13:00,37.4,17.5,30.34,NW,314,5.0,17.0,44,0.00,,SCT044,0.00,VWS V14.01,2013-03-13 21:13:00,
2013-03-13 16:14:00,37.4,18.0,30.34,West,281,4.0,17.0,45,0.00,,SCT044,0.00,VWS V14.01,2013-03-13 21:14:00,
2013-03-13 16:17:00,37.7,18.3,30.34,NW,321,4.0,17.0,45,0.00,,SCT044,0.00,VWS V14.01,2013-03-13 21:17:00,
2013-03-13 16:18:00,37.7,17.2,30.34,NW,321,7.0,17.0,43,0.00,,SCT044,0.00,VWS V14.01,2013-03-13 21:18:00,
2013-03-13 16:19:00,37.7,17.2,30.34,WNW,290,5.0,17.0,43,0.00,,SCT044,0.00,VWS V14.01,2013-03-13 21:19:00,
2013-03-13 16:22:00,37.5,17.0,30.34,NW,311,10.0,17.0,43,0.00,,SCT044,0.00,VWS V14.01,2013-03-13 21:22:00,
2013-03-13 16:23:00,37.4,17.0,30.34,West,265,9.0,17.0,43,0.00,,SCT044,0.00,VWS V14.01,2013-03-13 21:23:00,
2013-03-13 16:24:00,37.4,17.0,30.34,WNW,296,0.0,17.0,43,0.00,,SCT044,0.00,VWS V14.01,2013-03-13 21:24:00,
2013-03-13 16:28:00,37.4,17.0,30.34,NW,309,5.0,17.0,43,0.00,,SCT044,0.00,VWS V14.01,2013-03-13 21:28:00,
2013-03-13 16:29:00,37.4,17.0,30.34,NW,315,5.0,17.0,43,0.00,,SCT044,0.00,VWS V14.01,2013-03-13 21:29:00,
2013-03-13 16:30:00,37.5,17.6,30.34,NW,304,3.0,17.0,44,0.00,,OVC041,0.00,VWS V14.01,2013-03-13 21:30:00,
2013-03-13 16:33:00,37.7,17.2,30.34,WNW,300,7.0,16.0,43,0.00,,SCT044,0.00,VWS V14.01,2013-03-13 21:33:00,
2013-03-13 16:34:00,37.7,17.2,30.34,West,275,9.0,16.0,43,0.00,,SCT044,0.00,VWS V14.01,2013-03-13 21:34:00,
2013-03-13 16:35:00,37.7,16.7,30.34,NNW,336,12.0,16.0,42,0.00,,SCT044,0.00,VWS V14.01,2013-03-13 21:35:00,
2013-03-13 16:38:00,37.5,17.0,30.34,NW,311,3.0,16.0,43,0.00,,SCT044,0.00,VWS V14.01,2013-03-13 21:38:00,
2013-03-13 16:39:00,37.5,17.0,30.34,NW,308,2.0,16.0,43,0.00,,SCT044,0.00,VWS V14.01,2013-03-13 21:39:00,
2013-03-13 16:40:00,37.5,17.0,30.34,WNW,286,5.0,16.0,43,0.00,,SCT044,0.00,VWS V14.01,2013-03-13 21:40:00,
2013-03-13 16:44:00,37.4,16.4,30.34,WNW,295,9.0,16.0,42,0.00,,SCT044,0.00,VWS V14.01,2013-03-13 21:44:00,
2013-03-13 16:45:00,37.4,17.0,30.35,WNW,302,6.0,16.0,43,0.00,,SCT044,0.00,VWS V14.01,2013-03-13 21:45:00,
2013-03-13 16:49:00,37.4,15.9,30.35,NNW,342,8.0,16.0,41,0.00,,CLR,0.00,VWS V14.01,2013-03-13 21:49:00,
2013-03-13 16:50:00,37.2,15.7,30.35,NNW,334,5.0,16.0,41,0.00,,CLR,0.00,VWS V14.01,2013-03-13 21:50:00,
2013-03-13 16:54:00,37.2,16.8,30.35,West,273,3.0,16.0,43,0.00,,CLR,0.00,VWS V14.01,2013-03-13 21:54:00,
2013-03-13 16:55:00,37.2,16.8,30.35,WNW,291,4.0,16.0,43,0.00,,CLR,0.00,VWS V14.01,2013-03-13 21:55:00,
2013-03-13 16:59:00,37.1,16.1,30.34,NNW,335,9.0,16.0,42,0.00,,CLR,0.00,VWS V14.01,2013-03-13 21:59:00,
2013-03-13 17:00:00,36.9,16.0,30.34,WNW,287,6.0,16.0,42,0.00,,CLR,0.00,VWS V14.01,2013-03-13 22:00:00,
2013-03-13 17:04:00,36.9,16.0,30.34,West,279,6.0,12.0,42,0.00,,CLR,0.00,VWS V14.01,2013-03-13 22:04:00,
2013-03-13 17:05:00,36.9,16.0,30.34,WNW,301,9.0,12.0,42,0.00,,CLR,0.00,VWS V14.01,2013-03-13 22:05:00,
2013-03-13 17:09:00,36.9,16.5,30.34,WNW,295,4.0,12.0,43,0.00,,CLR,0.00,VWS V14.01,2013-03-13 22:09:00,
2013-03-13 17:10:00,36.9,16.5,30.34,NW,315,13.0,14.0,43,0.00,,CLR,0.00,VWS V14.01,2013-03-13 22:10:00,
2013-03-13 17:14:00,36.9,16.5,30.34,NNW,342,6.0,14.0,43,0.00,,CLR,0.00,VWS V14.01,2013-03-13 22:14:00,
2013-03-13 17:15:00,36.9,16.5,30.34,WNW,296,10.0,14.0,43,0.00,,CLR,0.00,VWS V14.01,2013-03-13 22:15:00,
2013-03-13 17:20:00,37.1,16.7,30.34,NNW,346,13.0,14.0,43,0.00,,CLR,0.00,VWS V14.01,2013-03-13 22:20:00,
2013-03-13 17:25:00,37.1,15.0,30.34,WNW,283,3.0,14.0,40,0.00,,CLR,0.00,VWS V14.01,2013-03-13 22:25:00,
2013-03-13 17:26:00,37.1,15.6,30.34,WNW,292,4.0,14.0,41,0.00,,CLR,0.00,VWS V14.01,2013-03-13 22:26:00,
2013-03-13 17:30:00,37.2,15.1,30.35,WNW,294,3.0,14.0,40,0.00,,CLR,0.00,VWS V14.01,2013-03-13 22:30:00,
2013-03-13 17:31:00,37.2,15.7,30.35,WNW,290,3.0,5.0,41,0.00,,CLR,0.00,VWS V14.01,2013-03-13 22:31:00,
2013-03-13 17:35:00,37.2,15.7,30.35,WNW,288,4.0,11.0,41,0.00,,CLR,0.00,VWS V14.01,2013-03-13 22:35:00,
2013-03-13 17:36:00,37.2,15.1,30.35,NW,321,5.0,15.0,40,0.00,,CLR,0.00,VWS V14.01,2013-03-13 22:36:00,
2013-03-13 17:40:00,37.2,15.7,30.35,West,281,2.0,15.0,41,0.00,,CLR,0.00,VWS V14.01,2013-03-13 22:40:00,
2013-03-13 17:41:00,37.2,16.2,30.35,WNW,288,2.0,15.0,42,0.00,,CLR,0.00,VWS V14.01,2013-03-13 22:41:00,
2013-03-13 17:45:00,37.1,15.6,30.35,WNW,292,4.0,15.0,41,0.00,,CLR,0.00,VWS V14.01,2013-03-13 22:45:00,
2013-03-13 17:46:00,37.1,15.6,30.35,WNW,294,3.0,15.0,41,0.00,,CLR,0.00,VWS V14.01,2013-03-13 22:46:00,
2013-03-13 17:47:00,36.9,16.0,30.35,West,263,0.0,15.0,42,0.00,,CLR,0.00,VWS V14.01,2013-03-13 22:47:00,
2013-03-13 17:50:00,36.9,16.0,30.35,WNW,292,4.0,15.0,42,0.00,,CLR,0.00,VWS V14.01,2013-03-13 22:50:00,
2013-03-13 17:51:00,36.8,15.9,30.35,NW,315,1.0,15.0,42,0.00,,CLR,0.00,VWS V14.01,2013-03-13 22:51:00,
2013-03-13 17:52:00,36.8,15.9,30.35,WNW,285,4.0,15.0,42,0.00,,CLR,0.00,VWS V14.01,2013-03-13 22:52:00,
2013-03-13 17:53:00,36.8,15.9,30.35,WNW,286,0.0,15.0,42,0.00,,CLR,0.00,VWS V14.01,2013-03-13 22:53:00,
2013-03-13 17:55:00,36.8,16.4,30.35,West,275,0.0,15.0,43,0.00,,CLR,0.00,VWS V14.01,2013-03-13 22:55:00,
2013-03-13 17:56:00,36.8,16.4,30.35,NW,306,2.0,15.0,43,0.00,,CLR,0.00,VWS V14.01,2013-03-13 22:56:00,
2013-03-13 17:57:00,36.8,16.4,30.35,WNW,298,1.0,15.0,43,0.00,,CLR,0.00,VWS V14.01,2013-03-13 22:57:00,
2013-03-13 17:58:00,36.8,16.4,30.35,NW,317,0.0,15.0,43,0.00,,CLR,0.00,VWS V14.01,2013-03-13 22:58:00,
2013-03-13 18:00:00,36.8,17.0,30.35,WNW,289,4.0,15.0,44,0.00,,CLR,0.00,VWS V14.01,2013-03-13 23:00:00,
2013-03-13 18:02:00,36.8,16.4,30.35,NW,304,2.0,9.0,43,0.00,,CLR,0.00,VWS V14.01,2013-03-13 23:02:00,
2013-03-13 18:03:00,36.8,16.4,30.35,NW,312,0.0,9.0,43,0.00,,CLR,0.00,VWS V14.01,2013-03-13 23:03:00,
2013-03-13 18:05:00,36.8,16.4,30.35,WNW,292,4.0,9.0,43,0.00,,CLR,0.00,VWS V14.01,2013-03-13 23:05:00,
2013-03-13 18:07:00,36.8,16.4,30.35,WNW,301,3.0,10.0,43,0.00,,CLR,0.00,VWS V14.01,2013-03-13 23:07:00,
2013-03-13 18:08:00,36.8,16.4,30.35,NW,326,5.0,15.0,43,0.00,,CLR,0.00,VWS V14.01,2013-03-13 23:08:00,
2013-03-13 18:10:00,36.7,15.8,30.35,West,278,9.0,15.0,42,0.00,,CLR,0.00,VWS V14.01,2013-03-13 23:10:00,
2013-03-13 18:12:00,36.7,15.8,30.35,NW,308,4.0,15.0,42,0.00,,CLR,0.00,VWS V14.01,2013-03-13 23:12:00,
2013-03-13 18:13:00,36.7,15.8,30.35,North,5,7.0,15.0,42,0.00,,CLR,0.00,VWS V14.01,2013-03-13 23:13:00,
2013-03-13 18:15:00,36.5,15.6,30.35,NW,317,3.0,15.0,42,0.00,,CLR,0.00,VWS V14.01,2013-03-13 23:15:00,
2013-03-13 18:17:00,36.5,16.1,30.35,NW,309,4.0,15.0,43,0.00,,CLR,0.00,VWS V14.01,2013-03-13 23:17:00,
2013-03-13 18:18:00,36.5,16.1,30.35,NW,304,0.0,15.0,43,0.00,,CLR,0.00,VWS V14.01,2013-03-13 23:18:00,
2013-03-13 18:21:00,36.5,16.1,30.35,NW,312,5.0,15.0,43,0.00,,CLR,0.00,VWS V14.01,2013-03-13 23:21:00,
2013-03-13 18:22:00,36.4,16.0,30.35,WNW,302,4.0,15.0,43,0.00,,CLR,0.00,VWS V14.01,2013-03-13 23:22:00,
2013-03-13 18:23:00,36.4,16.0,30.35,NW,307,6.0,15.0,43,0.00,,CLR,0.00,VWS V14.01,2013-03-13 23:23:00,
2013-03-13 18:27:00,36.2,16.4,30.35,NW,315,5.0,15.0,44,0.00,,CLR,0.00,VWS V14.01,2013-03-13 23:27:00,
2013-03-13 18:28:00,36.2,16.4,30.35,NW,315,1.0,15.0,44,0.00,,CLR,0.00,VWS V14.01,2013-03-13 23:28:00,
2013-03-13 18:29:00,36.2,16.4,30.35,North,5,5.0,15.0,44,0.00,,CLR,0.00,VWS V14.01,2013-03-13 23:29:00,
2013-03-13 18:30:00,36.1,15.8,30.35,NW,315,2.0,15.0,43,0.00,,OVC041,0.00,VWS V14.01,2013-03-13 23:30:00,
2013-03-13 18:32:00,36.1,15.8,30.35,NNW,335,3.0,7.0,43,0.00,,CLR,0.00,VWS V14.01,2013-03-13 23:32:00,
2013-03-13 18:33:00,36.1,15.8,30.35,NW,319,14.0,14.0,43,0.00,,CLR,0.00,VWS V14.01,2013-03-13 23:33:00,
2013-03-13 18:34:00,36.1,15.8,30.35,NW,320,7.0,14.0,43,0.00,,CLR,0.00,VWS V14.01,2013-03-13 23:34:00,
2013-03-13 18:37:00,35.8,15.5,30.35,WNW,299,3.0,14.0,43,0.00,,CLR,0.00,VWS V14.01,2013-03-13 23:37:00,
2013-03-13 18:38:00,35.8,15.5,30.35,NW,323,6.0,14.0,43,0.00,,CLR,0.00,VWS V14.01,2013-03-13 23:38:00,
2013-03-13 18:39:00,35.8,15.5,30.35,NW,319,7.0,14.0,43,0.00,,CLR,0.00,VWS V14.01,2013-03-13 23:39:00,
2013-03-13 18:42:00,35.7,15.9,30.35,NW,319,0.0,14.0,44,0.00,,CLR,0.00,VWS V14.01,2013-03-13 23:42:00,
2013-03-13 18:43:00,35.7,15.9,30.35,NW,323,2.0,14.0,44,0.00,,CLR,0.00,VWS V14.01,2013-03-13 23:43:00,
2013-03-13 18:44:00,35.7,15.9,30.35,WNW,299,3.0,14.0,44,0.00,,CLR,0.00,VWS V14.01,2013-03-13 23:44:00,
2013-03-13 18:47:00,35.5,16.3,30.35,NW,317,0.0,14.0,45,0.00,,CLR,0.00,VWS V14.01,2013-03-13 23:47:00,
2013-03-13 18:48:00,35.5,16.3,30.35,NW,317,0.0,14.0,45,0.00,,CLR,0.00,VWS V14.01,2013-03-13 23:48:00,
2013-03-13 18:50:00,35.5,16.3,30.35,NW,312,0.0,14.0,45,0.00,,CLR,0.00,VWS V14.01,2013-03-13 23:50:00,
2013-03-13 18:52:00,35.4,16.2,30.35,WNW,302,0.0,14.0,45,0.00,,CLR,0.00,VWS V14.01,2013-03-13 23:52:00,
2013-03-13 18:53:00,35.4,16.2,30.35,WNW,302,0.0,14.0,45,0.00,,CLR,0.00,VWS V14.01,2013-03-13 23:53:00,
2013-03-13 18:55:00,35.2,16.0,30.35,NW,309,1.0,14.0,45,0.00,,CLR,0.00,VWS V14.01,2013-03-13 23:55:00,
2013-03-13 18:58:00,35.1,16.4,30.35,NNW,346,6.0,14.0,46,0.00,,CLR,0.00,VWS V14.01,2013-03-13 23:58:00,
2013-03-13 19:00:00,34.9,15.7,30.35,WNW,299,1.0,14.0,45,0.00,,CLR,0.00,VWS V14.01,2013-03-14 00:00:00,
2013-03-13 19:03:00,34.8,15.6,30.35,NW,311,5.0,12.0,45,0.00,,CLR,0.00,VWS V14.01,2013-03-14 00:03:00,
2013-03-13 19:04:00,34.8,15.6,30.35,WNW,303,5.0,12.0,45,0.00,,CLR,0.00,VWS V14.01,2013-03-14 00:04:00,
2013-03-13 19:05:00,34.8,16.1,30.35,NW,323,3.0,12.0,46,0.00,,CLR,0.00,VWS V14.01,2013-03-14 00:05:00,
2013-03-13 19:08:00,34.5,15.9,30.35,NW,322,3.0,12.0,46,0.00,,CLR,0.00,VWS V14.01,2013-03-14 00:08:00,
2013-03-13 19:09:00,34.5,15.9,30.35,NW,324,5.0,12.0,46,0.00,,CLR,0.00,VWS V14.01,2013-03-14 00:09:00,
2013-03-13 19:10:00,34.5,15.9,30.35,NW,305,0.0,12.0,46,0.00,,CLR,0.00,VWS V14.01,2013-03-14 00:10:00,
2013-03-13 19:14:00,34.3,15.7,30.35,NW,304,1.0,12.0,46,0.00,,CLR,0.00,VWS V14.01,2013-03-14 00:14:00,
2013-03-13 19:15:00,34.2,16.1,30.35,NW,317,2.0,12.0,47,0.00,,CLR,0.00,VWS V14.01,2013-03-14 00:15:00,
2013-03-13 19:16:00,34.2,16.1,30.35,NNW,327,2.0,12.0,47,0.00,,CLR,0.00,VWS V14.01,2013-03-14 00:16:00,
2013-03-13 19:19:00,34.0,15.9,30.35,NW,311,0.0,12.0,47,0.00,,CLR,0.00,VWS V14.01,2013-03-14 00:19:00,
2013-03-13 19:20:00,34.0,16.4,30.35,NW,313,0.0,12.0,48,0.00,,CLR,0.00,VWS V14.01,2013-03-14 00:20:00,
2013-03-13 19:24:00,33.9,16.3,30.35,NW,304,0.0,12.0,48,0.00,,CLR,0.00,VWS V14.01,2013-03-14 00:24:00,
2013-03-13 19:25:00,33.7,16.6,30.35,NW,305,0.0,12.0,49,0.00,,CLR,0.00,VWS V14.01,2013-03-14 00:25:00,
2013-03-13 19:26:00,33.7,16.1,30.35,NW,309,0.0,12.0,48,0.00,,CLR,0.00,VWS V14.01,2013-03-14 00:26:00,
2013-03-13 19:29:00,33.6,16.5,30.35,WNW,301,0.0,12.0,49,0.00,,CLR,0.00,VWS V14.01,2013-03-14 00:29:00,
2013-03-13 19:30:00,33.6,16.5,30.35,WNW,302,0.0,12.0,49,0.00,,CLR,0.00,VWS V14.01,2013-03-14 00:30:00,
2013-03-13 19:32:00,33.6,16.5,30.35,NW,309,0.0,2.0,49,0.00,,CLR,0.00,VWS V14.01,2013-03-14 00:32:00,
2013-03-13 19:34:00,33.4,16.3,30.35,NW,304,0.0,4.0,49,0.00,,CLR,0.00,VWS V14.01,2013-03-14 00:34:00,
2013-03-13 19:35:00,33.4,16.3,30.35,WNW,302,0.0,4.0,49,0.00,,CLR,0.00,VWS V14.01,2013-03-14 00:35:00,
2013-03-13 19:37:00,33.4,16.3,30.35,WNW,302,0.0,4.0,49,0.00,,CLR,0.00,VWS V14.01,2013-03-14 00:37:00,
2013-03-13 19:39:00,33.3,16.7,30.35,WNW,302,0.0,4.0,50,0.00,,CLR,0.00,VWS V14.01,2013-03-14 00:39:00,
2013-03-13 19:40:00,33.3,16.7,30.35,WNW,302,0.0,4.0,50,0.00,,CLR,0.00,VWS V14.01,2013-03-14 00:40:00,
2013-03-13 19:42:00,33.3,16.7,30.35,WNW,302,0.0,4.0,50,0.00,,CLR,0.00,VWS V14.01,2013-03-14 00:42:00,
2013-03-13 19:44:00,33.1,16.5,30.36,WNW,302,0.0,4.0,50,0.00,,CLR,0.00,VWS V14.01,2013-03-14 00:44:00,
2013-03-13 19:45:00,33.1,16.5,30.36,WNW,302,0.0,4.0,50,0.00,,CLR,0.00,VWS V14.01,2013-03-14 00:45:00,
2013-03-13 19:47:00,33.1,16.5,30.36,WNW,302,0.0,4.0,50,0.00,,CLR,0.00,VWS V14.01,2013-03-14 00:47:00,
2013-03-13 19:49:00,33.0,16.4,30.36,WNW,302,0.0,4.0,50,0.00,,CLR,0.00,VWS V14.01,2013-03-14 00:49:00,
2013-03-13 19:50:00,33.0,16.4,30.36,WNW,302,0.0,4.0,50,0.00,,CLR,0.00,VWS V14.01,2013-03-14 00:50:00,
2013-03-13 19:52:00,32.8,16.7,30.36,WNW,302,0.0,4.0,51,0.00,,CLR,0.00,VWS V14.01,2013-03-14 00:52:00,
2013-03-13 19:54:00,32.8,16.7,30.36,WNW,302,0.0,4.0,51,0.00,,CLR,0.00,VWS V14.01,2013-03-14 00:54:00,
2013-03-13 19:55:00,32.8,16.7,30.36,WNW,302,0.0,4.0,51,0.00,,CLR,0.00,VWS V14.01,2013-03-14 00:55:00,
2013-03-13 19:57:00,32.7,16.6,30.36,WNW,302,0.0,4.0,51,0.00,,CLR,0.00,VWS V14.01,2013-03-14 00:57:00,
2013-03-13 19:59:00,32.7,16.6,30.35,WNW,302,0.0,4.0,51,0.00,,CLR,0.00,VWS V14.01,2013-03-14 00:59:00,
2013-03-13 20:00:00,32.7,17.0,30.35,WNW,302,0.0,0.0,52,0.00,,CLR,0.00,VWS V14.01,2013-03-14 01:00:00,
2013-03-13 20:02:00,32.6,16.9,30.35,WNW,302,0.0,0.0,52,0.00,,CLR,0.00,VWS V14.01,2013-03-14 01:02:00,
2013-03-13 20:04:00,32.4,16.8,30.35,WNW,302,0.0,0.0,52,0.00,,CLR,0.00,VWS V14.01,2013-03-14 01:04:00,
2013-03-13 20:06:00,32.4,16.8,30.35,WNW,302,0.0,0.0,52,0.00,,CLR,0.00,VWS V14.01,2013-03-14 01:06:00,
2013-03-13 20:07:00,32.3,17.1,30.35,WNW,302,0.0,0.0,53,0.00,,CLR,0.00,VWS V14.01,2013-03-14 01:07:00,
2013-03-13 20:09:00,32.3,17.1,30.35,WNW,302,0.0,0.0,53,0.00,,CLR,0.00,VWS V14.01,2013-03-14 01:09:00,
2013-03-13 20:10:00,32.1,16.9,30.35,WNW,302,0.0,0.0,53,0.00,,CLR,0.00,VWS V14.01,2013-03-14 01:10:00,
2013-03-13 20:11:00,32.1,16.9,30.35,WNW,302,0.0,0.0,53,0.00,,CLR,0.00,VWS V14.01,2013-03-14 01:11:00,
2013-03-13 20:12:00,32.1,16.9,30.35,WNW,302,0.0,0.0,53,0.00,,CLR,0.00,VWS V14.01,2013-03-14 01:12:00,
2013-03-13 20:14:00,32.0,17.2,30.36,WNW,302,0.0,0.0,54,0.00,,CLR,0.00,VWS V14.01,2013-03-14 01:14:00,
2013-03-13 20:15:00,32.0,17.2,30.36,WNW,302,0.0,0.0,54,0.00,,CLR,0.00,VWS V14.01,2013-03-14 01:15:00,
2013-03-13 20:16:00,31.8,17.1,30.36,WNW,302,0.0,0.0,54,0.00,,CLR,0.00,VWS V14.01,2013-03-14 01:16:00,
2013-03-13 20:18:00,31.8,17.1,30.36,WNW,302,0.0,0.0,54,0.00,,CLR,0.00,VWS V14.01,2013-03-14 01:18:00,
2013-03-13 20:20:00,31.5,16.8,30.36,WNW,302,0.0,0.0,54,0.00,,CLR,0.00,VWS V14.01,2013-03-14 01:20:00,
2013-03-13 20:21:00,31.5,16.8,30.36,WNW,302,0.0,0.0,54,0.00,,CLR,0.00,VWS V14.01,2013-03-14 01:21:00,
2013-03-13 20:22:00,31.4,16.7,30.36,WNW,302,0.0,0.0,54,0.00,,CLR,0.00,VWS V14.01,2013-03-14 01:22:00,
2013-03-13 20:23:00,31.4,17.1,30.36,WNW,302,0.0,0.0,55,0.00,,CLR,0.00,VWS V14.01,2013-03-14 01:23:00,
2013-03-13 20:27:00,30.9,16.6,30.36,WNW,302,0.0,0.0,55,0.00,,CLR,0.00,VWS V14.01,2013-03-14 01:27:00,
2013-03-13 20:28:00,30.9,17.1,30.36,WNW,302,0.0,0.0,56,0.00,,CLR,0.00,VWS V14.01,2013-03-14 01:28:00,
2013-03-13 20:30:00,30.8,17.0,30.36,WNW,302,0.0,0.0,56,0.00,,OVC041,0.00,VWS V14.01,2013-03-14 01:30:00,
2013-03-13 20:32:00,30.8,17.4,30.36,WNW,302,0.0,0.0,57,0.00,,CLR,0.00,VWS V14.01,2013-03-14 01:32:00,
2013-03-13 20:33:00,30.8,17.4,30.36,WNW,302,0.0,0.0,57,0.00,,CLR,0.00,VWS V14.01,2013-03-14 01:33:00,
2013-03-13 20:37:00,30.6,17.6,30.36,WNW,302,0.0,0.0,58,0.00,,CLR,0.00,VWS V14.01,2013-03-14 01:37:00,
2013-03-13 20:38:00,30.6,17.6,30.36,WNW,302,0.0,0.0,58,0.00,,CLR,0.00,VWS V14.01,2013-03-14 01:38:00,
2013-03-13 20:42:00,30.6,18.0,30.36,WNW,302,0.0,0.0,59,0.00,,CLR,0.00,VWS V14.01,2013-03-14 01:42:00,
2013-03-13 20:43:00,30.6,18.0,30.36,WNW,302,0.0,0.0,59,0.00,,CLR,0.00,VWS V14.01,2013-03-14 01:43:00,
2013-03-13 20:47:00,30.6,18.0,30.36,WNW,302,0.0,0.0,59,0.00,,CLR,0.00,VWS V14.01,2013-03-14 01:47:00,
2013-03-13 20:48:00,30.6,18.0,30.36,WNW,302,0.0,0.0,59,0.00,,CLR,0.00,VWS V14.01,2013-03-14 01:48:00,
2013-03-13 20:52:00,30.5,17.9,30.36,WNW,302,0.0,0.0,59,0.00,,CLR,0.00,VWS V14.01,2013-03-14 01:52:00,
2013-03-13 20:53:00,30.5,17.9,30.36,WNW,302,0.0,0.0,59,0.00,,CLR,0.00,VWS V14.01,2013-03-14 01:53:00,
2013-03-13 20:54:00,30.5,17.9,30.36,WNW,302,0.0,0.0,59,0.00,,CLR,0.00,VWS V14.01,2013-03-14 01:54:00,
2013-03-13 20:58:00,30.5,17.9,30.36,WNW,302,0.0,0.0,59,0.00,,CLR,0.00,VWS V14.01,2013-03-14 01:58:00,
2013-03-13 20:59:00,30.5,17.9,30.36,WNW,302,0.0,0.0,59,0.00,,CLR,0.00,VWS V14.01,2013-03-14 01:59:00,
2013-03-13 21:00:00,30.5,17.9,30.36,WNW,302,0.0,0.0,59,0.00,,OVC041,0.00,VWS V14.01,2013-03-14 02:00:00,
2013-03-13 21:03:00,30.5,17.9,30.36,WNW,302,0.0,0.0,59,0.00,,CLR,0.00,VWS V14.01,2013-03-14 02:03:00,
2013-03-13 21:05:00,30.5,17.9,30.36,WNW,302,0.0,0.0,59,0.00,,CLR,0.00,VWS V14.01,2013-03-14 02:05:00,
2013-03-13 21:08:00,30.3,17.3,30.36,WNW,302,0.0,0.0,58,0.00,,CLR,0.00,VWS V14.01,2013-03-14 02:08:00,
2013-03-13 21:10:00,30.3,17.3,30.36,WNW,302,0.0,0.0,58,0.00,,CLR,0.00,VWS V14.01,2013-03-14 02:10:00,
2013-03-13 21:13:00,30.3,17.7,30.36,WNW,302,0.0,0.0,59,0.00,,CLR,0.00,VWS V14.01,2013-03-14 02:13:00,
2013-03-13 21:15:00,30.3,17.7,30.36,WNW,302,0.0,0.0,59,0.00,,CLR,0.00,VWS V14.01,2013-03-14 02:15:00,
2013-03-13 21:18:00,30.2,17.6,30.36,WNW,302,0.0,0.0,59,0.00,,CLR,0.00,VWS V14.01,2013-03-14 02:18:00,
2013-03-13 21:19:00,30.0,17.4,30.36,WNW,302,0.0,0.0,59,0.00,,CLR,0.00,VWS V14.01,2013-03-14 02:19:00,
2013-03-13 21:20:00,30.0,17.4,30.36,WNW,302,0.0,0.0,59,0.00,,CLR,0.00,VWS V14.01,2013-03-14 02:20:00,
2013-03-13 21:23:00,29.9,17.3,30.36,WNW,302,0.0,0.0,59,0.00,,CLR,0.00,VWS V14.01,2013-03-14 02:23:00,
2013-03-13 21:24:00,29.9,17.7,30.36,WNW,302,0.0,0.0,60,0.00,,CLR,0.00,VWS V14.01,2013-03-14 02:24:00,
2013-03-13 21:25:00,29.7,17.5,30.36,WNW,302,0.0,0.0,60,0.00,,CLR,0.00,VWS V14.01,2013-03-14 02:25:00,
2013-03-13 21:28:00,29.6,17.4,30.36,WNW,302,0.0,0.0,60,0.00,,CLR,0.00,VWS V14.01,2013-03-14 02:28:00,
2013-03-13 21:29:00,29.6,17.4,30.36,WNW,302,0.0,0.0,60,0.00,,CLR,0.00,VWS V14.01,2013-03-14 02:29:00,
2013-03-13 21:30:00,29.6,17.4,30.36,WNW,302,0.0,0.0,60,0.00,,CLR,0.00,VWS V14.01,2013-03-14 02:30:00,
2013-03-13 21:33:00,29.4,17.2,30.36,WNW,302,0.0,0.0,60,0.00,,CLR,0.00,VWS V14.01,2013-03-14 02:33:00,
2013-03-13 21:34:00,29.4,17.2,30.36,WNW,302,0.0,0.0,60,0.00,,CLR,0.00,VWS V14.01,2013-03-14 02:34:00,
2013-03-13 21:35:00,29.4,18.0,30.36,WNW,302,0.0,0.0,62,0.00,,CLR,0.00,VWS V14.01,2013-03-14 02:35:00,
2013-03-13 21:38:00,29.6,18.2,30.36,WNW,302,0.0,0.0,62,0.00,,CLR,0.00,VWS V14.01,2013-03-14 02:38:00,
2013-03-13 21:39:00,29.6,18.2,30.36,WNW,302,0.0,0.0,62,0.00,,CLR,0.00,VWS V14.01,2013-03-14 02:39:00,
2013-03-13 21:41:00,29.6,18.2,30.36,WNW,302,0.0,0.0,62,0.00,,CLR,0.00,VWS V14.01,2013-03-14 02:41:00,
2013-03-13 21:43:00,29.6,18.2,30.36,WNW,302,0.0,0.0,62,0.00,,CLR,0.00,VWS V14.01,2013-03-14 02:43:00,
2013-03-13 21:44:00,29.6,18.2,30.36,WNW,302,0.0,0.0,62,0.00,,CLR,0.00,VWS V14.01,2013-03-14 02:44:00,
2013-03-13 21:46:00,29.4,18.0,30.37,WNW,302,0.0,0.0,62,0.00,,CLR,0.00,VWS V14.01,2013-03-14 02:46:00,
2013-03-13 21:49:00,29.3,17.9,30.37,WNW,302,0.0,0.0,62,0.00,,CLR,0.00,VWS V14.01,2013-03-14 02:49:00,
2013-03-13 21:50:00,29.3,17.9,30.37,WNW,302,0.0,0.0,62,0.00,,CLR,0.00,VWS V14.01,2013-03-14 02:50:00,
2013-03-13 21:51:00,29.3,17.9,30.37,WNW,302,0.0,0.0,62,0.00,,CLR,0.00,VWS V14.01,2013-03-14 02:51:00,
2013-03-13 21:54:00,29.3,17.9,30.37,WNW,302,0.0,0.0,62,0.00,,CLR,0.00,VWS V14.01,2013-03-14 02:54:00,
2013-03-13 21:55:00,29.3,17.9,30.37,WNW,302,0.0,0.0,62,0.00,,CLR,0.00,VWS V14.01,2013-03-14 02:55:00,
2013-03-13 21:57:00,29.3,17.9,30.37,WNW,302,0.0,0.0,62,0.00,,CLR,0.00,VWS V14.01,2013-03-14 02:57:00,
2013-03-13 21:59:00,29.2,17.8,30.37,WNW,302,0.0,0.0,62,0.00,,CLR,0.00,VWS V14.01,2013-03-14 02:59:00,
2013-03-13 22:00:00,29.2,17.8,30.37,WNW,302,0.0,0.0,62,0.00,,CLR,0.00,VWS V14.01,2013-03-14 03:00:00,
2013-03-13 22:01:00,29.2,17.8,30.37,WNW,302,0.0,0.0,62,0.00,,CLR,0.00,VWS V14.01,2013-03-14 03:01:00,
2013-03-13 22:04:00,29.0,17.6,30.37,WNW,302,0.0,0.0,62,0.00,,CLR,0.00,VWS V14.01,2013-03-14 03:04:00,
2013-03-13 22:05:00,29.0,17.6,30.37,WNW,302,0.0,0.0,62,0.00,,CLR,0.00,VWS V14.01,2013-03-14 03:05:00,
2013-03-13 22:07:00,29.0,17.6,30.37,WNW,302,0.0,0.0,62,0.00,,CLR,0.00,VWS V14.01,2013-03-14 03:07:00,
2013-03-13 22:09:00,29.0,17.6,30.37,WNW,302,0.0,0.0,62,0.00,,CLR,0.00,VWS V14.01,2013-03-14 03:09:00,
2013-03-13 22:10:00,29.0,17.6,30.37,WNW,302,0.0,0.0,62,0.00,,CLR,0.00,VWS V14.01,2013-03-14 03:10:00,
2013-03-13 22:12:00,28.9,17.5,30.37,WNW,302,0.0,0.0,62,0.00,,CLR,0.00,VWS V14.01,2013-03-14 03:12:00,
2013-03-13 22:14:00,28.9,17.5,30.37,WNW,302,0.0,0.0,62,0.00,,CLR,0.00,VWS V14.01,2013-03-14 03:14:00,
2013-03-13 22:15:00,28.9,17.5,30.37,WNW,302,0.0,0.0,62,0.00,,CLR,0.00,VWS V14.01,2013-03-14 03:15:00,
2013-03-13 22:18:00,28.7,17.3,30.37,WNW,302,0.0,0.0,62,0.00,,CLR,0.00,VWS V14.01,2013-03-14 03:18:00,
2013-03-13 22:19:00,28.7,17.3,30.37,WNW,302,0.0,0.0,62,0.00,,CLR,0.00,VWS V14.01,2013-03-14 03:19:00,
2013-03-13 22:21:00,28.7,17.3,30.37,WNW,302,0.0,0.0,62,0.00,,CLR,0.00,VWS V14.01,2013-03-14 03:21:00,
2013-03-13 22:23:00,28.9,17.5,30.37,WNW,302,0.0,0.0,62,0.00,,CLR,0.00,VWS V14.01,2013-03-14 03:23:00,
2013-03-13 22:24:00,28.9,17.5,30.37,WNW,302,0.0,0.0,62,0.00,,CLR,0.00,VWS V14.01,2013-03-14 03:24:00,
2013-03-13 22:26:00,28.9,17.2,30.37,WNW,302,0.0,0.0,61,0.00,,CLR,0.00,VWS V14.01,2013-03-14 03:26:00,
2013-03-13 22:29:00,28.9,17.2,30.37,WNW,302,0.0,0.0,61,0.00,,CLR,0.00,VWS V14.01,2013-03-14 03:29:00,
2013-03-13 22:30:00,28.7,17.0,30.37,WNW,302,0.0,0.0,61,0.00,,OVC041,0.00,VWS V14.01,2013-03-14 03:30:00,
2013-03-13 22:31:00,28.7,17.0,30.37,WNW,302,0.0,0.0,61,0.00,,CLR,0.00,VWS V14.01,2013-03-14 03:31:00,
2013-03-13 22:34:00,28.7,17.0,30.37,WNW,302,0.0,0.0,61,0.00,,CLR,0.00,VWS V14.01,2013-03-14 03:34:00,
2013-03-13 22:36:00,28.7,17.0,30.37,WNW,302,0.0,0.0,61,0.00,,CLR,0.00,VWS V14.01,2013-03-14 03:36:00,
2013-03-13 22:39:00,28.6,16.9,30.37,WNW,302,0.0,0.0,61,0.00,,CLR,0.00,VWS V14.01,2013-03-14 03:39:00,
2013-03-13 22:41:00,28.6,16.9,30.37,WNW,302,0.0,0.0,61,0.00,,CLR,0.00,VWS V14.01,2013-03-14 03:41:00,
2013-03-13 22:44:00,28.6,17.2,30.37,WNW,302,0.0,0.0,62,0.00,,CLR,0.00,VWS V14.01,2013-03-14 03:44:00,
2013-03-13 22:45:00,28.7,17.3,30.37,WNW,302,0.0,0.0,62,0.00,,CLR,0.00,VWS V14.01,2013-03-14 03:45:00,
2013-03-13 22:46:00,28.7,17.3,30.37,WNW,302,0.0,0.0,62,0.00,,CLR,0.00,VWS V14.01,2013-03-14 03:46:00,
2013-03-13 22:49:00,28.6,17.2,30.37,WNW,302,0.0,0.0,62,0.00,,CLR,0.00,VWS V14.01,2013-03-14 03:49:00,
2013-03-13 22:50:00,28.6,17.2,30.37,WNW,302,0.0,0.0,62,0.00,,CLR,0.00,VWS V14.01,2013-03-14 03:50:00,
2013-03-13 22:52:00,28.4,17.1,30.37,WNW,302,0.0,0.0,62,0.00,,CLR,0.00,VWS V14.01,2013-03-14 03:52:00,
2013-03-13 22:54:00,28.1,17.1,30.37,WNW,302,0.0,0.0,63,0.00,,CLR,0.00,VWS V14.01,2013-03-14 03:54:00,
2013-03-13 22:55:00,28.1,17.1,30.37,WNW,302,0.0,0.0,63,0.00,,CLR,0.00,VWS V14.01,2013-03-14 03:55:00,
2013-03-13 22:57:00,28.0,17.0,30.37,WNW,302,0.0,0.0,63,0.00,,CLR,0.00,VWS V14.01,2013-03-14 03:57:00,
2013-03-13 22:59:00,27.8,16.9,30.37,WNW,302,0.0,0.0,63,0.00,,CLR,0.00,VWS V14.01,2013-03-14 03:59:00,
2013-03-13 23:00:00,27.8,16.9,30.37,WNW,302,0.0,0.0,63,0.00,,CLR,0.00,VWS V14.01,2013-03-14 04:00:00,
2013-03-13 23:05:00,27.5,16.9,30.37,WNW,302,0.0,0.0,64,0.00,,CLR,0.00,VWS V14.01,2013-03-14 04:05:00,
2013-03-13 23:10:00,27.5,16.9,30.37,WNW,302,0.0,0.0,64,0.00,,CLR,0.00,VWS V14.01,2013-03-14 04:10:00,
2013-03-13 23:15:00,27.5,16.9,30.36,WNW,302,0.0,0.0,64,0.00,,CLR,0.00,VWS V14.01,2013-03-14 04:15:00,
2013-03-13 23:20:00,27.4,17.2,30.36,WNW,302,0.0,0.0,65,0.00,,CLR,0.00,VWS V14.01,2013-03-14 04:20:00,
2013-03-13 23:25:00,27.4,17.2,30.36,WNW,302,0.0,0.0,65,0.00,,CLR,0.00,VWS V14.01,2013-03-14 04:25:00,
2013-03-13 23:30:00,27.2,17.0,30.36,WNW,302,0.0,0.0,65,0.00,,CLR,0.00,VWS V14.01,2013-03-14 04:30:00,
2013-03-13 23:35:00,27.2,17.0,30.36,WNW,302,0.0,0.0,65,0.00,,CLR,0.00,VWS V14.01,2013-03-14 04:35:00,
2013-03-13 23:36:00,27.2,17.0,30.36,WNW,302,0.0,0.0,65,0.00,,CLR,0.00,VWS V14.01,2013-03-14 04:36:00,
2013-03-13 23:40:00,27.1,17.3,30.36,WNW,302,0.0,0.0,66,0.00,,CLR,0.00,VWS V14.01,2013-03-14 04:40:00,
2013-03-13 23:41:00,27.1,17.3,30.36,WNW,302,0.0,0.0,66,0.00,,CLR,0.00,VWS V14.01,2013-03-14 04:41:00,
2013-03-13 23:46:00,26.9,17.1,30.36,WNW,302,0.0,0.0,66,0.00,,CLR,0.00,VWS V14.01,2013-03-14 04:46:00,
2013-03-13 23:47:00,26.9,17.1,30.36,WNW,302,0.0,0.0,66,0.00,,CLR,0.00,VWS V14.01,2013-03-14 04:47:00,
2013-03-13 23:51:00,26.8,17.3,30.36,WNW,302,0.0,0.0,67,0.00,,CLR,0.00,VWS V14.01,2013-03-14 04:51:00,
2013-03-13 23:52:00,26.8,17.3,30.36,WNW,302,0.0,0.0,67,0.00,,CLR,0.00,VWS V14.01,2013-03-14 04:52:00,
2013-03-13 23:56:00,26.6,17.1,30.36,WNW,302,0.0,0.0,67,0.00,,CLR,0.00,VWS V14.01,2013-03-14 04:56:00,
2013-03-13 23:57:00,26.6,17.5,30.36,WNW,302,0.0,0.0,68,0.00,,CLR,0.00,VWS V14.01,2013-03-14 04:57:00,